createdAt,value
2022-12-09T00:01:20.396Z,22.00
2022-12-09T00:03:48.779Z,22.20
2022-12-09T00:06:22.113Z,22.07
2022-12-09T00:08:50.137Z,22.17
2022-12-09T00:11:19.251Z,22.70
2022-12-09T00:13:54.284Z,23.10
2022-12-09T00:16:22.865Z,21.67
2022-12-09T00:18:50.715Z,21.53
2022-12-09T00:21:29.163Z,21.63
2022-12-09T00:23:59.279Z,22.10
2022-12-09T00:26:28.202Z,21.50
2022-12-09T00:28:56.410Z,20.67
2022-12-09T00:31:33.749Z,21.57
2022-12-09T00:34:04.641Z,21.43
2022-12-09T00:36:32.444Z,21.47
2022-12-09T00:39:00.470Z,20.83
2022-12-09T00:41:29.446Z,21.27
2022-12-09T00:43:57.980Z,20.83
2022-12-09T00:46:25.504Z,20.90
2022-12-09T00:48:52.917Z,21.23
2022-12-09T00:51:23.681Z,20.93
2022-12-09T00:53:54.935Z,20.60
2022-12-09T00:56:29.038Z,20.37
2022-12-09T00:58:57.529Z,20.73
2022-12-09T01:01:25.267Z,21.97
2022-12-09T01:03:52.756Z,21.60
2022-12-09T01:06:24.499Z,20.60
2022-12-09T01:08:52.832Z,21.07
2022-12-09T01:11:28.323Z,20.07
2022-12-09T01:14:01.208Z,19.87
2022-12-09T01:16:32.378Z,20.17
2022-12-09T01:19:03.221Z,20.23
2022-12-09T01:21:30.872Z,20.90
2022-12-09T01:23:58.190Z,20.00
2022-12-09T01:26:25.606Z,21.60
2022-12-09T01:28:55.346Z,20.03
2022-12-09T01:31:24.238Z,19.73
2022-12-09T01:33:53.715Z,21.73
2022-12-09T01:36:24.789Z,21.40
2022-12-09T01:38:52.625Z,20.27
2022-12-09T01:41:22.236Z,20.47
2022-12-09T01:44:27.969Z,20.00
2022-12-09T01:46:58.356Z,19.93
2022-12-09T01:49:35.671Z,20.93
2022-12-09T01:52:19.080Z,20.47
2022-12-09T01:54:48.585Z,21.13
2022-12-09T01:57:16.593Z,19.97
2022-12-09T01:59:45.917Z,20.50
2022-12-09T02:02:17.795Z,20.40
2022-12-09T02:04:49.041Z,19.97
2022-12-09T02:07:18.652Z,20.43
2022-12-09T02:09:46.154Z,21.17
2022-12-09T02:12:21.661Z,21.33
2022-12-09T02:15:06.040Z,21.23
2022-12-09T02:17:54.983Z,21.00
2022-12-09T02:20:30.036Z,22.80
2022-12-09T02:23:36.604Z,23.63
2022-12-09T02:26:19.633Z,22.37
2022-12-09T02:29:51.781Z,23.90
2022-12-09T02:32:37.091Z,23.17
2022-12-09T02:35:35.288Z,23.10
2022-12-09T02:38:22.812Z,23.63
2022-12-09T02:41:03.609Z,23.77
2022-12-09T02:43:37.335Z,23.60
2022-12-09T02:46:09.061Z,26.17
2022-12-09T02:48:42.985Z,23.67
2022-12-09T02:51:17.123Z,24.87
2022-12-09T02:53:51.020Z,25.27
2022-12-09T02:56:20.689Z,25.80
2022-12-09T02:58:49.784Z,26.67
2022-12-09T03:01:43.335Z,26.23
2022-12-09T03:04:17.757Z,25.73
2022-12-09T03:06:52.311Z,27.27
2022-12-09T03:09:37.765Z,25.57
2022-12-09T03:12:09.190Z,26.50
2022-12-09T03:14:44.848Z,27.87
2022-12-09T03:17:32.063Z,26.90
2022-12-09T03:20:17.377Z,27.87
2022-12-09T03:22:47.168Z,28.90
2022-12-09T03:25:26.386Z,27.03
2022-12-09T03:28:07.430Z,27.20
2022-12-09T03:30:39.262Z,28.77
2022-12-09T03:33:08.083Z,28.30
2022-12-09T03:35:44.639Z,28.53
2022-12-09T03:38:18.458Z,30.10
2022-12-09T03:40:51.530Z,29.50
2022-12-09T03:43:37.385Z,29.40
2022-12-09T03:46:05.031Z,30.17
2022-12-09T03:48:33.387Z,29.90
2022-12-09T03:51:38.795Z,29.53
2022-12-09T03:54:16.762Z,30.60
2022-12-09T03:56:49.474Z,30.40
2022-12-09T03:59:16.807Z,29.67
2022-12-09T04:01:46.115Z,30.23
2022-12-09T04:04:13.695Z,30.17
2022-12-09T04:06:41.147Z,28.87
2022-12-09T04:09:08.337Z,30.80
2022-12-09T04:11:35.642Z,30.20
2022-12-09T04:14:03.168Z,30.87
2022-12-09T04:16:30.459Z,30.53
2022-12-09T04:18:58.004Z,31.73
2022-12-09T04:21:25.086Z,32.07
2022-12-09T04:23:52.193Z,32.70
2022-12-09T04:26:23.753Z,31.30
2022-12-09T04:28:51.311Z,31.87
2022-12-09T04:31:20.627Z,33.63
2022-12-09T04:33:49.039Z,32.20
2022-12-09T04:36:18.718Z,34.13
2022-12-09T04:38:46.664Z,32.20
2022-12-09T04:41:15.591Z,33.50
2022-12-09T04:43:42.771Z,34.47
2022-12-09T04:46:17.336Z,34.20
2022-12-09T04:48:45.801Z,33.70
2022-12-09T04:51:15.611Z,33.30
2022-12-09T04:53:43.625Z,33.37
2022-12-09T04:56:21.719Z,34.50
2022-12-09T04:58:50.727Z,34.23
2022-12-09T05:01:26.633Z,34.63
2022-12-09T05:03:57.657Z,33.83
2022-12-09T05:06:25.910Z,33.17
2022-12-09T05:08:53.415Z,33.43
2022-12-09T05:11:23.713Z,33.83
2022-12-09T05:13:53.361Z,34.60
2022-12-09T05:16:21.519Z,33.80
2022-12-09T05:18:49.998Z,34.50
2022-12-09T05:21:21.554Z,35.47
2022-12-09T05:23:49.644Z,33.93
2022-12-09T05:26:21.288Z,34.20
2022-12-09T05:28:49.938Z,34.37
2022-12-09T05:31:20.998Z,33.00
2022-12-09T05:33:50.503Z,34.97
2022-12-09T05:36:22.898Z,33.83
2022-12-09T05:38:51.437Z,32.80
2022-12-09T05:41:19.114Z,33.97
2022-12-09T05:43:47.156Z,33.00
2022-12-09T05:46:16.238Z,34.57
2022-12-09T05:48:44.490Z,35.20
2022-12-09T05:51:28.560Z,37.17
2022-12-09T05:53:57.726Z,33.97
2022-12-09T05:56:25.993Z,34.50
2022-12-09T05:58:55.202Z,34.10
2022-12-09T06:01:24.969Z,33.27
2022-12-09T06:03:54.185Z,34.67
2022-12-09T06:06:26.728Z,33.93
2022-12-09T06:09:00.956Z,35.00
2022-12-09T06:11:29.073Z,34.37
2022-12-09T06:13:56.773Z,34.77
2022-12-09T06:16:25.040Z,35.03
2022-12-09T06:18:52.723Z,35.37
2022-12-09T06:21:21.391Z,33.57
2022-12-09T06:23:50.541Z,34.27
2022-12-09T06:26:20.916Z,36.00
2022-12-09T06:28:48.797Z,34.80
2022-12-09T06:31:16.580Z,34.53
2022-12-09T06:34:00.251Z,34.87
2022-12-09T06:36:31.291Z,34.53
2022-12-09T06:39:09.188Z,34.03
2022-12-09T06:41:38.129Z,36.40
2022-12-09T06:44:06.175Z,34.93
2022-12-09T06:46:34.035Z,34.47
2022-12-09T06:49:01.833Z,35.27
2022-12-09T06:51:29.443Z,34.80
2022-12-09T06:53:56.671Z,34.70
2022-12-09T06:56:24.725Z,36.50
2022-12-09T06:58:52.874Z,34.13
2022-12-09T07:01:23.843Z,33.87
2022-12-09T07:03:55.697Z,37.07
2022-12-09T07:06:29.047Z,36.30
2022-12-09T07:08:59.990Z,36.60
2022-12-09T07:11:28.247Z,34.27
2022-12-09T07:13:55.711Z,36.57
2022-12-09T07:16:24.069Z,36.43
2022-12-09T07:18:52.004Z,36.63
2022-12-09T07:21:21.514Z,35.87
2022-12-09T07:23:49.365Z,36.57
2022-12-09T07:26:18.364Z,37.77
2022-12-09T07:28:50.618Z,36.70
2022-12-09T07:31:25.197Z,35.17
2022-12-09T07:33:55.406Z,35.73
2022-12-09T07:36:25.296Z,38.10
2022-12-09T07:38:56.646Z,36.97
2022-12-09T07:41:24.549Z,37.33
2022-12-09T07:43:52.325Z,35.70
2022-12-09T07:46:21.750Z,38.57
2022-12-09T07:48:49.650Z,36.33
2022-12-09T07:51:17.951Z,36.20
2022-12-09T07:53:46.058Z,34.93
2022-12-09T07:56:15.608Z,36.00
2022-12-09T07:58:45.255Z,34.20
2022-12-09T08:01:18.862Z,37.97
2022-12-09T08:03:49.585Z,37.43
2022-12-09T08:06:20.927Z,35.90
2022-12-09T08:08:49.520Z,35.50
2022-12-09T08:11:22.330Z,33.67
2022-12-09T08:13:51.026Z,33.90
2022-12-09T08:16:21.502Z,32.60
2022-12-09T08:18:50.087Z,31.67
2022-12-09T08:21:27.792Z,32.60
2022-12-09T08:23:58.207Z,33.90
2022-12-09T08:26:28.669Z,34.17
2022-12-09T08:28:56.568Z,32.93
2022-12-09T08:31:26.637Z,31.87
2022-12-09T08:33:54.998Z,33.23
2022-12-09T08:36:28.276Z,31.07
2022-12-09T08:38:58.755Z,33.00
2022-12-09T08:41:38.886Z,32.00
2022-12-09T08:44:19.567Z,34.10
2022-12-09T08:46:50.996Z,32.97
2022-12-09T08:49:22.339Z,31.43
2022-12-09T08:51:52.633Z,31.07
2022-12-09T08:54:20.809Z,31.80
2022-12-09T08:56:50.785Z,29.83
2022-12-09T08:59:18.758Z,29.27
2022-12-09T09:01:46.981Z,30.47
2022-12-09T09:04:19.844Z,30.20
2022-12-09T09:06:50.528Z,31.17
2022-12-09T09:09:19.735Z,32.80
2022-12-09T09:11:48.102Z,29.60
2022-12-09T09:14:15.937Z,29.80
2022-12-09T09:16:45.609Z,30.30
2022-12-09T09:19:20.857Z,30.73
2022-12-09T09:21:49.718Z,30.90
2022-12-09T09:24:20.945Z,29.33
2022-12-09T09:26:50.165Z,30.23
2022-12-09T09:29:21.294Z,30.60
2022-12-09T09:31:49.805Z,28.20
2022-12-09T09:34:19.244Z,28.93
2022-12-09T09:36:48.401Z,27.97
2022-12-09T09:39:16.048Z,29.40
2022-12-09T09:42:07.834Z,29.80
2022-12-09T09:44:46.946Z,28.30
2022-12-09T09:47:40.836Z,28.37
2022-12-09T09:50:38.888Z,29.97
2022-12-09T09:53:31.506Z,26.77
2022-12-09T09:56:17.690Z,26.40
2022-12-09T09:59:37.444Z,27.47
2022-12-09T10:02:11.639Z,26.33
2022-12-09T10:05:29.207Z,26.00
2022-12-09T10:08:33.640Z,23.60
2022-12-09T10:11:32.116Z,23.53
2022-12-09T10:14:06.476Z,24.30
2022-12-09T10:17:01.432Z,24.03
2022-12-09T10:19:37.122Z,24.80
2022-12-09T10:22:24.790Z,24.23
2022-12-09T10:24:58.136Z,22.80
2022-12-09T10:27:57.537Z,24.30
2022-12-09T10:30:27.155Z,23.10
2022-12-09T10:32:58.915Z,24.23
2022-12-09T10:35:30.748Z,23.50
2022-12-09T10:38:14.807Z,24.00
2022-12-09T10:40:53.751Z,21.80
2022-12-09T10:43:38.708Z,22.67
2022-12-09T10:46:19.530Z,23.87
2022-12-09T10:48:48.797Z,21.00
2022-12-09T10:51:27.987Z,21.10
2022-12-09T10:54:29.717Z,20.47
2022-12-09T10:57:12.663Z,21.20
2022-12-09T10:59:56.103Z,20.20
2022-12-09T11:02:24.121Z,21.80
2022-12-09T11:04:52.545Z,20.40
2022-12-09T11:07:28.228Z,20.00
2022-12-09T11:10:00.737Z,19.40
2022-12-09T11:12:30.848Z,18.50
2022-12-09T11:15:25.477Z,18.13
2022-12-09T11:18:02.564Z,18.80
2022-12-09T11:20:33.654Z,16.77
2022-12-09T11:23:13.398Z,17.40
2022-12-09T11:25:58.639Z,17.37
2022-12-09T11:28:44.059Z,20.50
2022-12-09T11:31:29.377Z,20.37
2022-12-09T11:34:04.386Z,22.57
2022-12-09T11:36:42.281Z,23.33
2022-12-09T11:39:34.850Z,23.40
2022-12-09T11:42:17.124Z,23.50
2022-12-09T11:45:00.190Z,23.40
2022-12-09T11:48:22.569Z,21.83
2022-12-09T11:50:32.647Z,22.00
2022-12-09T11:53:12.709Z,20.43
2022-12-09T11:56:18.423Z,20.90
2022-12-09T11:58:58.986Z,20.30
2022-12-09T12:02:09.754Z,20.57
2022-12-09T12:05:23.692Z,20.77
2022-12-09T12:08:08.152Z,19.93
2022-12-09T12:10:53.241Z,19.83
2022-12-09T12:13:42.528Z,19.07
2022-12-09T12:16:39.306Z,20.00
2022-12-09T12:19:21.539Z,20.20
2022-12-09T12:22:04.226Z,21.13
2022-12-09T12:25:09.797Z,19.90
2022-12-09T12:28:01.304Z,19.50
2022-12-09T12:31:31.792Z,19.33
2022-12-09T12:34:25.126Z,18.67
2022-12-09T12:37:09.134Z,20.03
2022-12-09T12:39:59.522Z,17.67
2022-12-09T12:43:24.770Z,18.70
2022-12-09T12:46:17.198Z,18.67
2022-12-09T12:48:58.509Z,19.00
2022-12-09T12:51:43.948Z,19.10
2022-12-09T12:54:33.046Z,18.97
2022-12-09T12:57:45.890Z,19.47
2022-12-09T13:00:24.131Z,18.30
2022-12-09T13:03:27.402Z,18.57
2022-12-09T13:05:58.108Z,17.83
2022-12-09T13:09:03.286Z,17.60
2022-12-09T13:11:46.280Z,17.37
2022-12-09T13:14:23.051Z,19.17
2022-12-09T13:16:51.149Z,18.93
2022-12-09T13:19:50.435Z,18.47
2022-12-09T13:22:48.475Z,18.03
2022-12-09T13:25:52.865Z,18.00
2022-12-09T13:28:48.207Z,18.97
2022-12-09T13:31:20.715Z,17.77
2022-12-09T13:34:07.390Z,17.30
2022-12-09T13:36:46.302Z,18.37
2022-12-09T13:39:56.628Z,18.20
2022-12-09T13:42:46.573Z,17.30
2022-12-09T13:45:33.793Z,17.83
2022-12-09T13:48:26.897Z,16.17
2022-12-09T13:50:59.809Z,17.03
2022-12-09T13:53:45.951Z,17.03
2022-12-09T13:56:16.905Z,16.97
2022-12-09T13:58:55.601Z,17.13
2022-12-09T14:01:51.021Z,18.23
2022-12-09T14:04:26.540Z,16.33
2022-12-09T14:07:09.821Z,16.40
2022-12-09T14:09:40.330Z,16.27
2022-12-09T14:12:28.257Z,16.70
2022-12-09T14:15:23.014Z,17.33
2022-12-09T14:17:49.922Z,15.80
2022-12-09T14:20:30.219Z,17.00
2022-12-09T14:23:13.834Z,17.67
2022-12-09T14:25:56.928Z,16.07
2022-12-09T14:28:36.730Z,15.90
2022-12-09T14:31:08.750Z,15.53
2022-12-09T14:33:45.663Z,17.23
2022-12-09T14:36:15.802Z,14.73
2022-12-09T14:39:23.498Z,16.37
2022-12-09T14:42:09.096Z,16.43
2022-12-09T14:44:55.115Z,15.93
2022-12-09T14:47:30.711Z,16.57
2022-12-09T14:50:28.001Z,15.47
2022-12-09T14:53:01.680Z,16.47
2022-12-09T14:55:33.140Z,16.93
2022-12-09T14:58:01.874Z,15.43
2022-12-09T15:00:40.914Z,16.07
2022-12-09T15:03:45.176Z,16.07
2022-12-09T15:06:17.931Z,15.60
2022-12-09T15:08:45.886Z,16.07
2022-12-09T15:11:23.391Z,16.97
2022-12-09T15:13:54.041Z,15.97
2022-12-09T15:16:25.841Z,16.43
2022-12-09T15:18:54.451Z,16.33
2022-12-09T15:21:30.790Z,16.13
2022-12-09T15:23:59.936Z,16.30
2022-12-09T15:26:33.391Z,16.57
2022-12-09T15:29:05.102Z,15.37
2022-12-09T15:31:34.376Z,15.57
2022-12-09T15:34:24.758Z,16.67
2022-12-09T15:37:02.241Z,17.27
2022-12-09T15:39:36.625Z,16.50
2022-12-09T15:42:12.920Z,17.63
2022-12-09T15:44:49.400Z,17.30
2022-12-09T15:47:40.310Z,16.73
2022-12-09T15:50:32.109Z,16.80
2022-12-09T15:53:08.289Z,17.37
2022-12-09T15:56:12.471Z,17.27
2022-12-09T15:58:46.782Z,17.23
2022-12-09T16:01:31.572Z,17.33
2022-12-09T16:04:02.560Z,17.20
2022-12-09T16:06:37.152Z,17.77
2022-12-09T16:09:22.067Z,16.90
2022-12-09T16:11:53.690Z,17.03
2022-12-09T16:14:23.620Z,17.70
2022-12-09T16:17:02.433Z,17.23
2022-12-09T16:19:36.475Z,17.63
2022-12-09T16:22:15.875Z,17.37
2022-12-09T16:27:48.950Z,19.50
2022-12-09T16:30:22.782Z,18.60
2022-12-09T16:33:02.104Z,19.73
2022-12-09T16:35:40.470Z,18.77
2022-12-09T16:38:13.956Z,19.77
2022-12-09T16:40:43.947Z,19.23
2022-12-09T16:43:17.121Z,20.37
2022-12-09T16:45:47.239Z,20.27
2022-12-09T16:48:17.017Z,19.53
2022-12-09T16:51:05.079Z,19.27
2022-12-09T16:53:39.360Z,20.27
2022-12-09T16:56:06.810Z,20.27
2022-12-09T16:58:35.296Z,20.47
2022-12-09T17:01:04.442Z,21.40
2022-12-09T17:03:41.886Z,20.30
2022-12-09T17:06:15.251Z,19.70
2022-12-09T17:08:42.924Z,20.27
2022-12-09T17:11:10.838Z,21.07
2022-12-09T17:13:39.362Z,22.00
2022-12-09T17:16:07.833Z,20.97
2022-12-09T17:18:35.507Z,20.47
2022-12-09T17:21:14.260Z,21.17
2022-12-09T17:23:42.150Z,21.93
2022-12-09T17:26:15.286Z,20.37
2022-12-09T17:28:45.804Z,20.13
2022-12-09T17:31:19.646Z,19.73
2022-12-09T17:33:50.266Z,20.13
2022-12-09T17:36:18.628Z,21.03
2022-12-09T17:38:45.949Z,20.03
2022-12-09T17:41:19.136Z,20.50
2022-12-09T17:43:47.011Z,20.37
2022-12-09T17:46:14.722Z,19.73
2022-12-09T17:48:43.745Z,19.53
2022-12-09T17:51:14.431Z,20.13
2022-12-09T17:53:43.145Z,19.53
2022-12-09T17:56:16.617Z,18.97
2022-12-09T17:58:44.307Z,20.17
2022-12-09T18:01:23.354Z,20.60
2022-12-09T18:03:56.590Z,19.93
2022-12-09T18:06:27.064Z,20.30
2022-12-09T18:08:54.685Z,20.47
2022-12-09T18:11:22.541Z,20.27
2022-12-09T18:13:50.125Z,22.13
2022-12-09T18:16:18.264Z,21.00
2022-12-09T18:18:45.655Z,22.47
2022-12-09T18:21:15.883Z,23.13
2022-12-09T18:23:44.042Z,21.23
2022-12-09T18:26:15.354Z,19.80
2022-12-09T18:28:43.317Z,19.93
2022-12-09T18:36:28.133Z,21.80
2022-12-09T18:38:58.015Z,22.37
2022-12-09T18:41:29.473Z,22.17
2022-12-09T18:43:59.492Z,23.53
2022-12-09T18:46:34.116Z,21.30
2022-12-09T18:49:11.927Z,23.07
2022-12-09T18:51:41.508Z,21.57
2022-12-09T18:54:10.974Z,20.70
2022-12-09T18:56:38.116Z,20.83
2022-12-09T18:59:08.330Z,21.13
2022-12-09T19:01:45.344Z,22.50
2022-12-09T19:04:20.763Z,21.20
2022-12-09T19:06:51.405Z,21.63
2022-12-09T19:09:26.824Z,21.43
2022-12-09T19:11:54.905Z,21.70
2022-12-09T19:14:23.747Z,21.17
2022-12-09T19:16:52.809Z,23.23
2022-12-09T19:19:24.482Z,20.77
2022-12-09T19:21:54.106Z,21.40
2022-12-09T19:24:31.733Z,21.93
2022-12-09T19:26:59.669Z,22.40
2022-12-09T19:29:28.553Z,21.63
2022-12-09T19:32:02.678Z,22.53
2022-12-09T19:34:39.228Z,21.37
2022-12-09T19:37:07.273Z,21.20
2022-12-09T19:39:44.546Z,21.20
2022-12-09T19:42:12.789Z,22.83
2022-12-09T19:47:34.887Z,23.23
2022-12-09T19:50:09.748Z,22.67
2022-12-09T19:52:45.316Z,23.53
2022-12-09T19:55:16.180Z,20.30
2022-12-09T19:57:43.766Z,21.27
2022-12-09T20:00:16.039Z,22.00
2022-12-09T20:02:43.690Z,23.07
2022-12-09T20:05:11.400Z,23.33
2022-12-09T20:07:42.651Z,22.70
2022-12-09T20:10:11.635Z,23.27
2022-12-09T20:12:39.148Z,22.43
2022-12-09T20:15:08.115Z,22.53
2022-12-09T20:17:36.022Z,22.83
2022-12-09T20:20:07.552Z,22.30
2022-12-09T20:22:41.157Z,22.50
2022-12-09T20:25:09.237Z,25.60
2022-12-09T20:27:37.553Z,23.50
2022-12-09T20:30:07.545Z,24.23
2022-12-09T20:32:36.926Z,26.00
2022-12-09T20:35:08.647Z,22.50
2022-12-09T20:37:38.003Z,23.13
2022-12-09T20:40:08.146Z,22.93
2022-12-09T20:42:35.797Z,23.27
2022-12-09T20:45:04.895Z,23.17
2022-12-09T20:47:35.316Z,23.17
2022-12-09T20:50:05.405Z,23.63
2022-12-09T20:52:33.723Z,23.33
2022-12-09T20:55:02.625Z,23.30
2022-12-09T20:57:36.424Z,23.63
2022-12-09T21:00:11.002Z,23.63
2022-12-09T21:02:40.610Z,23.83
2022-12-09T21:05:10.180Z,24.10
2022-12-09T21:07:43.052Z,23.03
2022-12-09T21:10:11.448Z,25.43
2022-12-09T21:12:43.060Z,23.80
2022-12-09T21:15:11.745Z,22.27
2022-12-09T21:17:41.309Z,22.67
2022-12-09T21:20:10.535Z,22.13
2022-12-09T21:22:39.828Z,23.90
2022-12-09T21:25:15.254Z,25.27
2022-12-09T21:27:43.067Z,23.87
2022-12-09T21:30:11.974Z,22.60
2022-12-09T21:32:42.144Z,24.27
2022-12-09T21:35:10.061Z,23.90
2022-12-09T21:37:37.373Z,23.17
2022-12-09T21:40:06.152Z,23.33
2022-12-09T21:42:34.099Z,22.47
2022-12-09T21:45:01.616Z,23.17
2022-12-09T21:47:28.965Z,23.53
2022-12-09T21:49:59.655Z,22.97
2022-12-09T21:52:28.084Z,22.40
2022-12-09T21:54:55.541Z,22.63
2022-12-09T21:57:26.089Z,22.50
2022-12-09T21:59:53.790Z,24.23
2022-12-09T22:02:21.030Z,22.37
2022-12-09T22:04:48.153Z,23.00
2022-12-09T22:07:15.361Z,21.67
2022-12-09T22:09:42.508Z,22.37
2022-12-09T22:12:09.764Z,23.03
2022-12-09T22:14:37.187Z,22.83
2022-12-09T22:17:04.526Z,21.47
2022-12-09T22:19:31.652Z,22.20
2022-12-09T22:21:58.777Z,23.20
2022-12-09T22:24:26.819Z,22.90
2022-12-09T22:26:54.009Z,22.03
2022-12-09T22:29:21.250Z,21.50
2022-12-09T22:31:48.426Z,23.07
2022-12-09T22:34:19.939Z,22.37
2022-12-09T22:36:49.271Z,22.33
2022-12-09T22:39:24.211Z,23.53
2022-12-09T22:41:51.746Z,23.53
2022-12-09T22:44:21.732Z,24.07
2022-12-09T22:46:49.492Z,23.37
2022-12-09T22:49:17.795Z,22.23
2022-12-09T22:51:46.667Z,22.53
2022-12-09T22:54:14.274Z,23.33
2022-12-09T22:56:43.361Z,22.47
2022-12-09T22:59:13.216Z,25.00
2022-12-09T23:01:43.203Z,24.37
2022-12-09T23:04:11.569Z,26.37
2022-12-09T23:06:40.745Z,24.60
2022-12-09T23:09:22.626Z,26.37
2022-12-09T23:11:52.066Z,28.53
2022-12-09T23:14:23.655Z,27.33
2022-12-09T23:17:01.440Z,27.87
2022-12-09T23:19:32.620Z,28.13
2022-12-09T23:22:05.857Z,28.47
2022-12-09T23:24:35.465Z,29.00
2022-12-09T23:27:05.490Z,27.27
2022-12-09T23:29:35.848Z,28.30
2022-12-09T23:32:03.479Z,27.73
2022-12-09T23:34:31.163Z,26.80
2022-12-09T23:36:59.514Z,27.17
2022-12-09T23:39:27.187Z,28.63
2022-12-09T23:42:00.131Z,29.10
2022-12-09T23:44:27.218Z,28.27
2022-12-09T23:46:54.481Z,28.17
2022-12-09T23:49:22.044Z,29.67
2022-12-09T23:51:49.933Z,29.53
2022-12-09T23:54:21.768Z,29.73
2022-12-09T23:56:50.850Z,29.90
2022-12-09T23:59:23.684Z,29.30
